Palm Coast, Florida
Current Conditions -  °F | °C
As of 6:53 AM on Friday 28 Nov 2014 (Local Time) from KDAB Reporting Station
Scattered Clouds Scattered Clouds  
Wind Chill: 35°   Ceiling: Unl
Heat Index: 41°   Visibility: 10mi
Dew Point: 34°   Wind: 9mph
Humidity: 76%   Direction: 310°NW
Pressure: 30.3"   Gusts: NA
Location:  29.57°N, 81.19°W
Report Text: KDAB 281153Z 31008KT 10SM FEW030 SCT055 05/01 A3030 RMK AO2 SLP259 T00500011 10094 20050 53002
Loading
Personal Weather Stations






























Interactive Weather Map New forecast layout! Learn more

10-Day Weather Forecast

Advertisements
Track Severe Weather on mobile